Time;durP1;ratioP1;P1;durP2;ratioP2;P2;SDS_P1;SDS_P2;PMS_P1;PMS_P2;Temp;Humidity;BMP_temperature;BMP_pressure;BME280_temperature;BME280_humidity;BME280_pressure;Samples;Min_cycle;Max_cycle;Signal;HPM_P1;HPM_P2
2022/01/25 00:15:19;;;;;;;41.2;50.5;;;;;;;0.2;67.1;100240;;;;
2022/01/25 00:25:04;;;;;;;41.2;50.5;;;;;;;0.3;66.8;100230;;;;
2022/01/25 00:34:38;;;;;;;41.2;50.5;;;;;;;0.4;66.6;100230;;;;
2022/01/25 00:45:38;;;;;;;38.3;46.5;;;;;;;0.5;66.8;100230;;;;
2022/01/25 00:56:38;;;;;;;38.3;46.5;;;;;;;0.4;66.9;100230;;;;
2022/01/25 01:06:40;;;;;;;38.3;46.5;;;;;;;0.5;66.8;100220;;;;
2022/01/25 01:39:10;;;;;;;55.6;66;;;;;;;0.3;69.6;100200;;;;
2022/01/25 01:49:42;;;;;;;55.6;66;;;;;;;0.4;70;100190;;;;
2022/01/25 01:59:38;;;;;;;55.6;66;;;;;;;0.4;70.8;100180;;;;
2022/01/25 02:10:38;;;;;;;63.8;77.1;;;;;;;0.5;71.5;100170;;;;
2022/01/25 02:30:38;;;;;;;63.8;77.1;;;;;;;0.6;73.7;100160;;;;
2022/01/25 02:41:38;;;;;;;50.7;67.6;;;;;;;0.5;75.8;100150;;;;
2022/01/25 02:51:38;;;;;;;50.7;67.6;;;;;;;0.6;77.6;100140;;;;
2022/01/25 03:01:38;;;;;;;50.7;67.6;;;;;;;0.7;79.2;100140;;;;
2022/01/25 03:12:43;;;;;;;32.3;41.8;;;;;;;0.7;79.9;100130;;;;
2022/01/25 03:22:57;;;;;;;32.3;41.8;;;;;;;0.8;80.1;100130;;;;
2022/01/25 03:32:38;;;;;;;32.3;41.8;;;;;;;0.7;80.7;100120;;;;
2022/01/25 03:42:39;;;;;;;29.4;34.7;;;;;;;0.6;81.5;100120;;;;
2022/01/25 03:52:38;;;;;;;29.4;34.7;;;;;;;0.7;81.4;100120;;;;
2022/01/25 04:02:46;;;;;;;29.4;34.7;;;;;;;0.7;81.5;100110;;;;
2022/01/25 04:13:38;;;;;;;29.8;37;;;;;;;0.8;81.5;100100;;;;
2022/01/25 04:24:44;;;;;;;29.8;37;;;;;;;0.9;81.3;100090;;;;
2022/01/25 04:34:42;;;;;;;29.8;37;;;;;;;1;81.2;100090;;;;
2022/01/25 04:55:44;;;;;;;29.5;34.7;;;;;;;0.9;81.6;100080;;;;
2022/01/25 05:06:39;;;;;;;29.5;34.7;;;;;;;1;81.5;100070;;;;
2022/01/25 05:17:44;;;;;;;30.6;36.7;;;;;;;0.9;81.3;100060;;;;
2022/01/25 05:28:39;;;;;;;30.6;36.7;;;;;;;1;81.1;100060;;;;
2022/01/25 05:38:38;;;;;;;26;34.9;;;;;;;1;81.3;100050;;;;
2022/01/25 05:48:38;;;;;;;26;34.9;;;;;;;1.1;81;100030;;;;
2022/01/25 05:58:38;;;;;;;26;34.9;;;;;;;1;81.1;100020;;;;
2022/01/25 06:09:40;;;;;;;25.5;31.3;;;;;;;1;80.9;100000;;;;
2022/01/25 06:19:38;;;;;;;25.5;31.3;;;;;;;1.1;80.2;100030;;;;
2022/01/25 06:30:38;;;;;;;25.5;31.3;;;;;;;1.2;80;100010;;;;
2022/01/25 06:41:38;;;;;;;26.8;32.3;;;;;;;1;79.9;100000;;;;
2022/01/25 06:51:38;;;;;;;26.8;32.3;;;;;;;1.2;79.6;100000;;;;
2022/01/25 07:01:38;;;;;;;26.8;32.3;;;;;;;1.4;79.2;100000;;;;
2022/01/25 07:12:38;;;;;;;25.5;30.6;;;;;;;1.3;79.1;100010;;;;
2022/01/25 07:22:38;;;;;;;25.5;30.6;;;;;;;1.5;79.3;100000;;;;
2022/01/25 07:33:38;;;;;;;25.5;30.6;;;;;;;1.5;79.4;100000;;;;
2022/01/25 07:43:38;;;;;;;28.9;35.2;;;;;;;1.7;79.5;99990;;;;
2022/01/25 07:54:38;;;;;;;28.9;35.2;;;;;;;1.9;78.7;99980;;;;
2022/01/25 08:05:38;;;;;;;28.9;35.2;;;;;;;2.1;78.5;99990;;;;
2022/01/25 08:15:38;;;;;;;26;29.9;;;;;;;2.2;77.8;99980;;;;
2022/01/25 08:26:38;;;;;;;33;37.7;;;;;;;2.2;78;99980;;;;
2022/01/25 08:37:38;;;;;;;33;37.7;;;;;;;2.3;77.7;99980;;;;
2022/01/25 08:47:40;;;;;;;33;37.7;;;;;;;2.3;77.7;99970;;;;
2022/01/25 08:58:38;;;;;;;29.1;36.5;;;;;;;2.4;77.6;99970;;;;
2022/01/25 09:09:39;;;;;;;29.1;36.5;;;;;;;2.2;78.1;99980;;;;
2022/01/25 09:19:38;;;;;;;29.1;36.5;;;;;;;2.3;78.6;99980;;;;
2022/01/25 09:29:38;;;;;;;33.1;38.2;;;;;;;2.6;78.3;99980;;;;
2022/01/25 09:39:38;;;;;;;33.1;38.2;;;;;;;2.5;77.8;99960;;;;
2022/01/25 09:49:38;;;;;;;33.1;38.2;;;;;;;2.4;78.2;99960;;;;
2022/01/25 10:00:38;;;;;;;32.3;36.7;;;;;;;2.2;78.8;99960;;;;
2022/01/25 10:10:38;;;;;;;32.3;36.7;;;;;;;2.2;79.1;99960;;;;
2022/01/25 10:20:40;;;;;;;32.3;36.7;;;;;;;2.3;79.2;99960;;;;
2022/01/25 10:31:38;;;;;;;29.8;37.1;;;;;;;2.6;77.9;99950;;;;
2022/01/25 10:41:38;;;;;;;29.8;37.1;;;;;;;2.7;77.1;99930;;;;
2022/01/25 10:52:38;;;;;;;29.8;37.1;;;;;;;2.9;77;99910;;;;
2022/01/25 11:03:38;;;;;;;31.2;38.1;;;;;;;2.7;77.1;99920;;;;
2022/01/25 11:13:41;;;;;;;31.2;38.1;;;;;;;2.9;76.8;99910;;;;
2022/01/25 11:24:38;;;;;;;31.2;38.1;;;;;;;3;76.7;99900;;;;
2022/01/25 11:35:38;;;;;;;29.2;34.7;;;;;;;3.1;76.6;99860;;;;
2022/01/25 11:46:38;;;;;;;29.2;34.7;;;;;;;3.1;76.7;99840;;;;
2022/01/25 11:57:38;;;;;;;30.6;34.6;;;;;;;3.3;76.2;99840;;;;
2022/01/25 12:07:40;;;;;;;30.6;34.6;;;;;;;3.3;75.7;99830;;;;
2022/01/25 12:17:38;;;;;;;30.6;34.6;;;;;;;3.3;75.8;99820;;;;
2022/01/25 12:27:40;;;;;;;25.9;30.1;;;;;;;2.9;76.8;99820;;;;
2022/01/25 12:38:38;;;;;;;25.9;30.1;;;;;;;3.1;76.3;99820;;;;
2022/01/25 12:48:39;;;;;;;25.9;30.1;;;;;;;3.1;76.1;99810;;;;
2022/01/25 12:59:38;;;;;;;27;33.9;;;;;;;3;76.5;99810;;;;
2022/01/25 13:10:38;;;;;;;27;33.9;;;;;;;3;76.6;99820;;;;
2022/01/25 13:20:39;;;;;;;27;33.9;;;;;;;2.9;76.8;99820;;;;
2022/01/25 13:30:41;;;;;;;28.4;34;;;;;;;2.7;77.4;99810;;;;
2022/01/25 13:41:42;;;;;;;28.4;34;;;;;;;2.6;78.1;99820;;;;
2022/01/25 13:52:38;;;;;;;28.4;34;;;;;;;2.4;79.1;99820;;;;
2022/01/25 14:02:38;;;;;;;32.6;37.9;;;;;;;2.3;79.7;99820;;;;
2022/01/25 14:23:38;;;;;;;32.6;37.9;;;;;;;2.1;80.3;99820;;;;
2022/01/25 14:33:39;;;;;;;42.5;48.7;;;;;;;2.1;80.1;99820;;;;
2022/01/25 14:44:39;;;;;;;42.5;48.7;;;;;;;2.1;80;99830;;;;
2022/01/25 14:54:38;;;;;;;42.5;48.7;;;;;;;2.1;80;99830;;;;
2022/01/25 15:05:38;;;;;;;45.4;58.9;;;;;;;2;80.1;99840;;;;
2022/01/25 15:16:38;;;;;;;45.4;58.9;;;;;;;2;80;99850;;;;
2022/01/25 15:27:38;;;;;;;42.4;49.7;;;;;;;1.9;80.3;99850;;;;
2022/01/25 15:37:40;;;;;;;42.4;49.7;;;;;;;1.9;80.3;99840;;;;
2022/01/25 15:48:38;;;;;;;42.4;49.7;;;;;;;1.8;80.4;99840;;;;
2022/01/25 15:58:38;;;;;;;43.3;52.9;;;;;;;1.8;80.3;99840;;;;
2022/01/25 16:08:38;;;;;;;43.3;52.9;;;;;;;1.9;80;99840;;;;
2022/01/25 16:18:38;;;;;;;43.3;52.9;;;;;;;1.9;80.1;99840;;;;
2022/01/25 16:29:38;;;;;;;41.5;50.8;;;;;;;1.9;80.3;99850;;;;
2022/01/25 16:40:39;;;;;;;41.5;50.8;;;;;;;1.8;80.6;99860;;;;
2022/01/25 16:51:38;;;;;;;41.5;50.8;;;;;;;1.8;81.2;99860;;;;
2022/01/25 17:01:38;;;;;;;43.9;50.2;;;;;;;1.8;81.4;99860;;;;
2022/01/25 17:12:38;;;;;;;43.9;50.2;;;;;;;1.8;81.5;99870;;;;
2022/01/25 17:22:38;;;;;;;43.9;50.2;;;;;;;1.7;81.5;99860;;;;
2022/01/25 17:33:38;;;;;;;49;57.1;;;;;;;1.8;81.2;99870;;;;
2022/01/25 17:43:38;;;;;;;49;57.1;;;;;;;1.8;81;99860;;;;
2022/01/25 17:53:38;;;;;;;49;57.1;;;;;;;1.8;81.1;99860;;;;
2022/01/25 18:03:38;;;;;;;55.4;66.6;;;;;;;1.8;80.9;99860;;;;
2022/01/25 18:14:38;;;;;;;55.4;66.6;;;;;;;1.8;81.1;99850;;;;
2022/01/25 18:24:47;;;;;;;51.6;60.1;;;;;;;1.9;81;99840;;;;
2022/01/25 18:34:38;;;;;;;51.6;60.1;;;;;;;1.9;80.9;99830;;;;
2022/01/25 18:44:38;;;;;;;51.6;60.1;;;;;;;1.8;81;99840;;;;
2022/01/25 18:54:38;;;;;;;40.7;47;;;;;;;1.8;81.2;99840;;;;
2022/01/25 19:04:38;;;;;;;40.7;47;;;;;;;1.9;81.1;99830;;;;
2022/01/25 19:14:38;;;;;;;40.7;47;;;;;;;1.9;81.2;99830;;;;
2022/01/25 19:24:38;;;;;;;41.6;47.9;;;;;;;1.9;81.4;99840;;;;
2022/01/25 19:35:38;;;;;;;41.6;47.9;;;;;;;1.9;81.6;99830;;;;
2022/01/25 19:46:38;;;;;;;41.6;47.9;;;;;;;1.9;82.1;99830;;;;
2022/01/25 19:56:38;;;;;;;53;59.6;;;;;;;1.8;82.9;99840;;;;
2022/01/25 20:07:38;;;;;;;53;59.6;;;;;;;1.8;83.3;99840;;;;
2022/01/25 20:18:38;;;;;;;53;59.6;;;;;;;1.8;83.9;99830;;;;
2022/01/25 20:29:42;;;;;;;54.1;62.6;;;;;;;1.7;84.1;99830;;;;
2022/01/25 20:39:38;;;;;;;54.1;62.6;;;;;;;1.7;84.2;99840;;;;
2022/01/25 20:49:39;;;;;;;54.1;62.6;;;;;;;1.7;84.4;99840;;;;
2022/01/25 21:00:40;;;;;;;54.4;65.6;;;;;;;1.7;84.3;99840;;;;
2022/01/25 21:10:38;;;;;;;54.4;65.6;;;;;;;1.7;84.3;99830;;;;
2022/01/25 21:20:38;;;;;;;54.4;65.6;;;;;;;1.7;84.4;99830;;;;
2022/01/25 21:31:38;;;;;;;50;58.7;;;;;;;1.7;84.3;99830;;;;
2022/01/25 21:41:38;;;;;;;50;58.7;;;;;;;1.7;84.5;99820;;;;
2022/01/25 21:51:38;;;;;;;50;58.7;;;;;;;1.7;84.5;99810;;;;
2022/01/25 22:01:38;;;;;;;56.7;65.8;;;;;;;1.7;84.5;99800;;;;
2022/01/25 22:11:45;;;;;;;56.7;65.8;;;;;;;1.7;84.4;99810;;;;
2022/01/25 22:22:38;;;;;;;56.7;65.8;;;;;;;1.7;84.3;99810;;;;
2022/01/25 22:32:38;;;;;;;74;84.3;;;;;;;1.7;84.4;99800;;;;
2022/01/25 22:43:50;;;;;;;74;84.3;;;;;;;1.6;84.5;99780;;;;
2022/01/25 22:53:40;;;;;;;74;84.3;;;;;;;1.7;84.3;99790;;;;
2022/01/25 23:03:38;;;;;;;60;74.8;;;;;;;1.7;84.5;99780;;;;
2022/01/25 23:14:46;;;;;;;60;74.8;;;;;;;1.8;84.4;99790;;;;
2022/01/25 23:25:38;;;;;;;53.5;65.4;;;;;;;1.8;84.3;99780;;;;
2022/01/25 23:35:42;;;;;;;53.5;65.4;;;;;;;1.7;84.3;99770;;;;
2022/01/25 23:46:43;;;;;;;53.5;65.4;;;;;;;1.7;84.4;99760;;;;
